sensor_id;sensor_type;location;lat;lon;timestamp;temperature;humidity
68511;SHT31;55512;50.102;19.958;2023-06-24T00:02:00;24.35;64.25
68511;SHT31;55512;50.102;19.958;2023-06-24T00:04:26;24.35;64.23
68511;SHT31;55512;50.102;19.958;2023-06-24T00:06:52;24.34;64.10
68511;SHT31;55512;50.102;19.958;2023-06-24T00:09:17;24.33;63.98
68511;SHT31;55512;50.102;19.958;2023-06-24T00:11:43;24.32;63.88
68511;SHT31;55512;50.102;19.958;2023-06-24T00:14:08;24.43;63.40
68511;SHT31;55512;50.102;19.958;2023-06-24T00:16:35;24.45;63.16
68511;SHT31;55512;50.102;19.958;2023-06-24T00:19:01;24.33;63.34
68511;SHT31;55512;50.102;19.958;2023-06-24T00:21:27;24.31;63.24
68511;SHT31;55512;50.102;19.958;2023-06-24T00:23:55;24.30;63.13
68511;SHT31;55512;50.102;19.958;2023-06-24T00:26:24;24.30;63.12
68511;SHT31;55512;50.102;19.958;2023-06-24T00:28:50;24.30;62.95
68511;SHT31;55512;50.102;19.958;2023-06-24T00:31:16;24.28;62.75
68511;SHT31;55512;50.102;19.958;2023-06-24T00:33:41;24.27;62.63
68511;SHT31;55512;50.102;19.958;2023-06-24T00:36:07;24.27;62.44
68511;SHT31;55512;50.102;19.958;2023-06-24T00:38:36;24.26;62.33
68511;SHT31;55512;50.102;19.958;2023-06-24T00:41:02;24.26;62.20
68511;SHT31;55512;50.102;19.958;2023-06-24T00:43:29;24.24;62.06
68511;SHT31;55512;50.102;19.958;2023-06-24T00:45:55;24.21;61.90
68511;SHT31;55512;50.102;19.958;2023-06-24T00:48:23;24.20;61.75
68511;SHT31;55512;50.102;19.958;2023-06-24T00:50:49;24.19;61.68
68511;SHT31;55512;50.102;19.958;2023-06-24T00:53:16;24.13;61.63
68511;SHT31;55512;50.102;19.958;2023-06-24T00:55:42;24.10;61.63
68511;SHT31;55512;50.102;19.958;2023-06-24T00:58:10;24.17;61.28
68511;SHT31;55512;50.102;19.958;2023-06-24T01:00:41;24.19;61.04
68511;SHT31;55512;50.102;19.958;2023-06-24T01:03:11;24.17;60.96
68511;SHT31;55512;50.102;19.958;2023-06-24T01:05:40;24.14;60.89
68511;SHT31;55512;50.102;19.958;2023-06-24T01:08:06;24.11;60.81
68511;SHT31;55512;50.102;19.958;2023-06-24T01:10:32;24.09;60.71
68511;SHT31;55512;50.102;19.958;2023-06-24T01:12:57;24.07;60.70
68511;SHT31;55512;50.102;19.958;2023-06-24T01:15:23;24.05;60.62
68511;SHT31;55512;50.102;19.958;2023-06-24T01:26:06;23.95;60.50
68511;SHT31;55512;50.102;19.958;2023-06-24T01:35:13;23.87;60.49
68511;SHT31;55512;50.102;19.958;2023-06-24T01:37:47;23.83;60.52
68511;SHT31;55512;50.102;19.958;2023-06-24T01:40:27;23.79;60.59
68511;SHT31;55512;50.102;19.958;2023-06-24T01:42:57;23.77;60.63
68511;SHT31;55512;50.102;19.958;2023-06-24T01:45:30;23.75;60.70
68511;SHT31;55512;50.102;19.958;2023-06-24T01:51:12;23.63;60.99
68511;SHT31;55512;50.102;19.958;2023-06-24T01:53:44;23.58;61.09
68511;SHT31;55512;50.102;19.958;2023-06-24T01:56:17;23.58;61.16
68511;SHT31;55512;50.102;19.958;2023-06-24T01:58:47;23.57;61.20
68511;SHT31;55512;50.102;19.958;2023-06-24T02:01:16;23.56;61.21
68511;SHT31;55512;50.102;19.958;2023-06-24T02:03:43;23.54;61.23
68511;SHT31;55512;50.102;19.958;2023-06-24T02:06:12;23.54;61.27
68511;SHT31;55512;50.102;19.958;2023-06-24T02:08:39;23.50;61.31
68511;SHT31;55512;50.102;19.958;2023-06-24T02:11:08;23.46;61.42
68511;SHT31;55512;50.102;19.958;2023-06-24T02:13:35;23.47;61.41
68511;SHT31;55512;50.102;19.958;2023-06-24T02:16:04;23.47;61.40
68511;SHT31;55512;50.102;19.958;2023-06-24T02:18:37;23.46;61.39
68511;SHT31;55512;50.102;19.958;2023-06-24T02:21:08;23.39;61.36
68511;SHT31;55512;50.102;19.958;2023-06-24T02:23:35;23.32;61.49
68511;SHT31;55512;50.102;19.958;2023-06-24T02:26:02;23.26;61.52
68511;SHT31;55512;50.102;19.958;2023-06-24T02:28:31;23.22;61.50
68511;SHT31;55512;50.102;19.958;2023-06-24T02:30:58;23.20;61.50
68511;SHT31;55512;50.102;19.958;2023-06-24T02:33:24;23.18;61.50
68511;SHT31;55512;50.102;19.958;2023-06-24T02:35:51;23.18;61.39
68511;SHT31;55512;50.102;19.958;2023-06-24T02:38:20;23.15;61.37
68511;SHT31;55512;50.102;19.958;2023-06-24T02:40:45;23.15;61.41
68511;SHT31;55512;50.102;19.958;2023-06-24T02:43:11;23.12;61.37
68511;SHT31;55512;50.102;19.958;2023-06-24T02:45:37;23.11;61.40
68511;SHT31;55512;50.102;19.958;2023-06-24T02:48:04;23.10;61.32
68511;SHT31;55512;50.102;19.958;2023-06-24T02:50:33;23.08;61.34
68511;SHT31;55512;50.102;19.958;2023-06-24T02:53:01;23.09;61.39
68511;SHT31;55512;50.102;19.958;2023-06-24T02:55:27;23.12;61.30
68511;SHT31;55512;50.102;19.958;2023-06-24T02:57:54;23.14;61.26
68511;SHT31;55512;50.102;19.958;2023-06-24T03:00:21;23.17;61.19
68511;SHT31;55512;50.102;19.958;2023-06-24T03:02:47;23.20;61.16
68511;SHT31;55512;50.102;19.958;2023-06-24T03:05:16;23.23;61.11
68511;SHT31;55512;50.102;19.958;2023-06-24T03:07:43;23.23;61.10
68511;SHT31;55512;50.102;19.958;2023-06-24T03:10:10;23.25;61.05
68511;SHT31;55512;50.102;19.958;2023-06-24T03:12:36;23.26;61.00
68511;SHT31;55512;50.102;19.958;2023-06-24T03:15:01;23.27;60.91
68511;SHT31;55512;50.102;19.958;2023-06-24T03:17:27;23.28;60.85
68511;SHT31;55512;50.102;19.958;2023-06-24T03:19:53;23.29;60.81
68511;SHT31;55512;50.102;19.958;2023-06-24T03:22:18;23.30;60.77
68511;SHT31;55512;50.102;19.958;2023-06-24T03:24:44;23.32;60.73
68511;SHT31;55512;50.102;19.958;2023-06-24T03:27:10;23.32;60.71
68511;SHT31;55512;50.102;19.958;2023-06-24T03:29:36;23.32;60.70
68511;SHT31;55512;50.102;19.958;2023-06-24T03:32:01;23.32;60.70
68511;SHT31;55512;50.102;19.958;2023-06-24T03:34:27;23.34;60.70
68511;SHT31;55512;50.102;19.958;2023-06-24T03:36:52;23.35;60.71
68511;SHT31;55512;50.102;19.958;2023-06-24T03:39:19;23.36;60.69
68511;SHT31;55512;50.102;19.958;2023-06-24T03:41:45;23.34;60.75
68511;SHT31;55512;50.102;19.958;2023-06-24T03:44:11;23.33;60.78
68511;SHT31;55512;50.102;19.958;2023-06-24T03:46:37;23.28;60.71
68511;SHT31;55512;50.102;19.958;2023-06-24T03:49:02;23.22;60.83
68511;SHT31;55512;50.102;19.958;2023-06-24T03:51:28;23.22;60.93
68511;SHT31;55512;50.102;19.958;2023-06-24T03:53:54;23.23;60.90
68511;SHT31;55512;50.102;19.958;2023-06-24T03:56:20;23.25;60.90
68511;SHT31;55512;50.102;19.958;2023-06-24T03:58:45;23.25;60.91
68511;SHT31;55512;50.102;19.958;2023-06-24T04:01:11;23.24;60.82
68511;SHT31;55512;50.102;19.958;2023-06-24T04:03:36;23.21;60.86
68511;SHT31;55512;50.102;19.958;2023-06-24T04:06:02;23.21;60.99
68511;SHT31;55512;50.102;19.958;2023-06-24T04:08:27;23.21;60.94
68511;SHT31;55512;50.102;19.958;2023-06-24T04:10:56;23.21;60.96
68511;SHT31;55512;50.102;19.958;2023-06-24T04:13:24;23.24;61.00
68511;SHT31;55512;50.102;19.958;2023-06-24T04:15:50;23.28;60.87
68511;SHT31;55512;50.102;19.958;2023-06-24T04:18:16;23.24;60.91
68511;SHT31;55512;50.102;19.958;2023-06-24T04:20:42;23.21;61.00
68511;SHT31;55512;50.102;19.958;2023-06-24T04:23:07;23.20;61.03
68511;SHT31;55512;50.102;19.958;2023-06-24T04:25:35;23.18;61.09
68511;SHT31;55512;50.102;19.958;2023-06-24T04:28:01;23.13;61.16
68511;SHT31;55512;50.102;19.958;2023-06-24T04:30:27;23.11;61.29
68511;SHT31;55512;50.102;19.958;2023-06-24T04:32:52;23.07;61.33
68511;SHT31;55512;50.102;19.958;2023-06-24T04:35:18;23.08;61.41
68511;SHT31;55512;50.102;19.958;2023-06-24T04:37:43;23.07;61.44
68511;SHT31;55512;50.102;19.958;2023-06-24T04:40:09;23.06;61.47
68511;SHT31;55512;50.102;19.958;2023-06-24T04:42:35;23.03;61.59
68511;SHT31;55512;50.102;19.958;2023-06-24T04:45:00;23.03;61.60
68511;SHT31;55512;50.102;19.958;2023-06-24T04:47:27;23.03;61.64
68511;SHT31;55512;50.102;19.958;2023-06-24T04:49:52;23.07;61.70
68511;SHT31;55512;50.102;19.958;2023-06-24T04:52:18;23.09;61.79
68511;SHT31;55512;50.102;19.958;2023-06-24T04:54:43;23.10;61.75
68511;SHT31;55512;50.102;19.958;2023-06-24T04:57:09;23.11;61.78
68511;SHT31;55512;50.102;19.958;2023-06-24T04:59:49;23.11;61.80
68511;SHT31;55512;50.102;19.958;2023-06-24T05:02:14;23.12;61.89
68511;SHT31;55512;50.102;19.958;2023-06-24T05:04:39;23.13;61.90
68511;SHT31;55512;50.102;19.958;2023-06-24T05:07:05;23.13;61.90
68511;SHT31;55512;50.102;19.958;2023-06-24T05:09:30;23.16;61.83
68511;SHT31;55512;50.102;19.958;2023-06-24T05:11:56;23.17;61.79
68511;SHT31;55512;50.102;19.958;2023-06-24T05:14:21;23.20;61.72
68511;SHT31;55512;50.102;19.958;2023-06-24T05:16:46;23.18;61.80
68511;SHT31;55512;50.102;19.958;2023-06-24T05:19:12;23.19;61.89
68511;SHT31;55512;50.102;19.958;2023-06-24T05:21:37;23.20;61.89
68511;SHT31;55512;50.102;19.958;2023-06-24T05:24:03;23.20;62.12
68511;SHT31;55512;50.102;19.958;2023-06-24T05:26:29;23.20;62.35
68511;SHT31;55512;50.102;19.958;2023-06-24T05:28:54;23.17;62.60
68511;SHT31;55512;50.102;19.958;2023-06-24T05:31:19;23.12;62.84
68511;SHT31;55512;50.102;19.958;2023-06-24T05:33:45;23.09;63.06
68511;SHT31;55512;50.102;19.958;2023-06-24T05:36:11;23.07;63.33
68511;SHT31;55512;50.102;19.958;2023-06-24T05:38:37;23.07;63.49
68511;SHT31;55512;50.102;19.958;2023-06-24T05:41:02;23.06;63.55
68511;SHT31;55512;50.102;19.958;2023-06-24T05:43:27;23.06;63.63
68511;SHT31;55512;50.102;19.958;2023-06-24T05:45:53;23.04;63.83
68511;SHT31;55512;50.102;19.958;2023-06-24T05:48:18;23.04;63.95
68511;SHT31;55512;50.102;19.958;2023-06-24T05:50:44;23.01;64.17
68511;SHT31;55512;50.102;19.958;2023-06-24T05:53:09;22.98;64.43
68511;SHT31;55512;50.102;19.958;2023-06-24T05:55:35;22.99;64.67
68511;SHT31;55512;50.102;19.958;2023-06-24T05:58:00;23.00;64.83
68511;SHT31;55512;50.102;19.958;2023-06-24T06:00:26;23.00;64.97
68511;SHT31;55512;50.102;19.958;2023-06-24T06:02:51;22.99;65.14
68511;SHT31;55512;50.102;19.958;2023-06-24T06:05:17;22.99;65.26
68511;SHT31;55512;50.102;19.958;2023-06-24T06:07:42;22.99;65.51
68511;SHT31;55512;50.102;19.958;2023-06-24T06:10:08;22.99;65.73
68511;SHT31;55512;50.102;19.958;2023-06-24T06:12:36;22.98;65.86
68511;SHT31;55512;50.102;19.958;2023-06-24T06:15:02;22.96;66.02
68511;SHT31;55512;50.102;19.958;2023-06-24T06:17:28;22.97;66.19
68511;SHT31;55512;50.102;19.958;2023-06-24T06:19:53;22.98;66.26
68511;SHT31;55512;50.102;19.958;2023-06-24T06:22:19;23.02;66.24
68511;SHT31;55512;50.102;19.958;2023-06-24T06:24:44;23.06;66.36
68511;SHT31;55512;50.102;19.958;2023-06-24T06:27:10;23.06;66.39
68511;SHT31;55512;50.102;19.958;2023-06-24T06:29:36;23.07;66.47
68511;SHT31;55512;50.102;19.958;2023-06-24T06:32:02;23.09;66.41
68511;SHT31;55512;50.102;19.958;2023-06-24T06:34:27;23.11;66.51
68511;SHT31;55512;50.102;19.958;2023-06-24T06:36:53;23.11;66.60
68511;SHT31;55512;50.102;19.958;2023-06-24T06:39:18;23.12;66.62
68511;SHT31;55512;50.102;19.958;2023-06-24T06:41:43;23.14;66.76
68511;SHT31;55512;50.102;19.958;2023-06-24T06:44:09;23.16;66.88
68511;SHT31;55512;50.102;19.958;2023-06-24T06:46:34;23.20;66.86
68511;SHT31;55512;50.102;19.958;2023-06-24T06:48:59;23.22;66.94
68511;SHT31;55512;50.102;19.958;2023-06-24T06:51:25;23.24;67.02
68511;SHT31;55512;50.102;19.958;2023-06-24T06:53:51;23.26;67.07
68511;SHT31;55512;50.102;19.958;2023-06-24T06:56:25;23.28;66.86
68511;SHT31;55512;50.102;19.958;2023-06-24T06:58:51;23.29;66.73
68511;SHT31;55512;50.102;19.958;2023-06-24T07:01:17;23.31;66.78
68511;SHT31;55512;50.102;19.958;2023-06-24T07:03:43;23.22;66.69
68511;SHT31;55512;50.102;19.958;2023-06-24T07:06:09;23.06;66.71
68511;SHT31;55512;50.102;19.958;2023-06-24T07:08:35;22.96;66.98
68511;SHT31;55512;50.102;19.958;2023-06-24T07:11:01;22.81;67.30
68511;SHT31;55512;50.102;19.958;2023-06-24T07:13:28;22.55;67.70
68511;SHT31;55512;50.102;19.958;2023-06-24T07:15:53;22.38;68.02
68511;SHT31;55512;50.102;19.958;2023-06-24T07:18:18;22.25;68.10
68511;SHT31;55512;50.102;19.958;2023-06-24T07:20:44;22.19;68.24
68511;SHT31;55512;50.102;19.958;2023-06-24T07:23:09;22.11;68.19
68511;SHT31;55512;50.102;19.958;2023-06-24T07:25:35;22.15;68.11
68511;SHT31;55512;50.102;19.958;2023-06-24T07:28:01;22.16;68.03
68511;SHT31;55512;50.102;19.958;2023-06-24T07:30:27;22.10;68.02
68511;SHT31;55512;50.102;19.958;2023-06-24T07:32:52;21.97;67.82
68511;SHT31;55512;50.102;19.958;2023-06-24T07:35:17;21.92;68.09
68511;SHT31;55512;50.102;19.958;2023-06-24T07:37:44;21.90;68.06
68511;SHT31;55512;50.102;19.958;2023-06-24T07:40:10;21.81;68.08
68511;SHT31;55512;50.102;19.958;2023-06-24T07:42:36;21.74;67.92
68511;SHT31;55512;50.102;19.958;2023-06-24T07:45:01;21.74;67.95
68511;SHT31;55512;50.102;19.958;2023-06-24T07:47:27;21.69;67.81
68511;SHT31;55512;50.102;19.958;2023-06-24T07:49:52;21.65;67.80
68511;SHT31;55512;50.102;19.958;2023-06-24T07:52:18;21.61;67.85
68511;SHT31;55512;50.102;19.958;2023-06-24T07:54:43;21.55;67.80
68511;SHT31;55512;50.102;19.958;2023-06-24T07:57:09;21.55;67.83
68511;SHT31;55512;50.102;19.958;2023-06-24T07:59:34;21.57;67.58
68511;SHT31;55512;50.102;19.958;2023-06-24T08:01:59;21.57;67.66
68511;SHT31;55512;50.102;19.958;2023-06-24T08:04:25;21.57;67.63
68511;SHT31;55512;50.102;19.958;2023-06-24T08:06:50;21.57;67.43
68511;SHT31;55512;50.102;19.958;2023-06-24T08:09:17;21.50;66.95
68511;SHT31;55512;50.102;19.958;2023-06-24T08:11:43;21.39;66.82
68511;SHT31;55512;50.102;19.958;2023-06-24T08:14:09;21.33;66.81
68511;SHT31;55512;50.102;19.958;2023-06-24T08:16:34;21.27;67.01
68511;SHT31;55512;50.102;19.958;2023-06-24T08:19:00;21.25;67.11
68511;SHT31;55512;50.102;19.958;2023-06-24T08:21:25;21.20;67.20
68511;SHT31;55512;50.102;19.958;2023-06-24T08:23:51;21.15;67.32
68511;SHT31;55512;50.102;19.958;2023-06-24T08:26:17;21.09;67.35
68511;SHT31;55512;50.102;19.958;2023-06-24T08:28:46;21.02;67.41
68511;SHT31;55512;50.102;19.958;2023-06-24T08:31:12;20.98;67.49
68511;SHT31;55512;50.102;19.958;2023-06-24T08:33:38;20.98;67.46
68511;SHT31;55512;50.102;19.958;2023-06-24T08:36:07;20.97;67.53
68511;SHT31;55512;50.102;19.958;2023-06-24T08:38:32;21.01;67.56
68511;SHT31;55512;50.102;19.958;2023-06-24T08:40:57;21.05;67.73
68511;SHT31;55512;50.102;19.958;2023-06-24T08:43:23;21.08;67.79
68511;SHT31;55512;50.102;19.958;2023-06-24T08:45:49;21.06;67.76
68511;SHT31;55512;50.102;19.958;2023-06-24T08:48:14;21.01;67.54
68511;SHT31;55512;50.102;19.958;2023-06-24T08:50:43;20.99;67.64
68511;SHT31;55512;50.102;19.958;2023-06-24T08:53:11;20.97;67.71
68511;SHT31;55512;50.102;19.958;2023-06-24T08:55:43;20.92;67.83
68511;SHT31;55512;50.102;19.958;2023-06-24T08:58:10;20.92;67.83
68511;SHT31;55512;50.102;19.958;2023-06-24T09:00:35;20.92;67.73
68511;SHT31;55512;50.102;19.958;2023-06-24T09:03:01;20.92;67.66
68511;SHT31;55512;50.102;19.958;2023-06-24T09:05:27;20.93;67.49
68511;SHT31;55512;50.102;19.958;2023-06-24T09:07:53;20.94;67.49
68511;SHT31;55512;50.102;19.958;2023-06-24T09:10:31;20.97;67.45
68511;SHT31;55512;50.102;19.958;2023-06-24T09:13:03;21.03;67.59
68511;SHT31;55512;50.102;19.958;2023-06-24T09:15:34;21.05;67.49
68511;SHT31;55512;50.102;19.958;2023-06-24T09:18:02;21.06;67.50
68511;SHT31;55512;50.102;19.958;2023-06-24T09:20:30;21.11;67.38
68511;SHT31;55512;50.102;19.958;2023-06-24T09:23:01;21.15;67.40
68511;SHT31;55512;50.102;19.958;2023-06-24T09:25:29;21.19;67.32
68511;SHT31;55512;50.102;19.958;2023-06-24T09:27:58;21.22;67.19
68511;SHT31;55512;50.102;19.958;2023-06-24T09:30:25;21.20;67.11
68511;SHT31;55512;50.102;19.958;2023-06-24T09:32:51;21.19;66.84
68511;SHT31;55512;50.102;19.958;2023-06-24T09:35:19;21.18;66.94
68511;SHT31;55512;50.102;19.958;2023-06-24T09:37:50;21.18;67.01
68511;SHT31;55512;50.102;19.958;2023-06-24T09:40:17;21.20;67.02
68511;SHT31;55512;50.102;19.958;2023-06-24T09:42:54;21.20;67.05
68511;SHT31;55512;50.102;19.958;2023-06-24T09:45:25;21.19;67.08
68511;SHT31;55512;50.102;19.958;2023-06-24T09:47:52;21.21;67.22
68511;SHT31;55512;50.102;19.958;2023-06-24T09:50:20;21.23;67.08
68511;SHT31;55512;50.102;19.958;2023-06-24T09:52:46;21.23;67.14
68511;SHT31;55512;50.102;19.958;2023-06-24T09:55:15;21.23;67.00
68511;SHT31;55512;50.102;19.958;2023-06-24T09:57:44;21.26;66.87
68511;SHT31;55512;50.102;19.958;2023-06-24T10:00:15;21.29;66.81
68511;SHT31;55512;50.102;19.958;2023-06-24T10:02:44;21.34;66.79
68511;SHT31;55512;50.102;19.958;2023-06-24T10:05:11;21.40;66.78
68511;SHT31;55512;50.102;19.958;2023-06-24T10:07:39;21.45;66.75
68511;SHT31;55512;50.102;19.958;2023-06-24T10:10:06;21.51;66.60
68511;SHT31;55512;50.102;19.958;2023-06-24T10:12:33;21.55;66.50
68511;SHT31;55512;50.102;19.958;2023-06-24T10:15:00;21.58;66.43
68511;SHT31;55512;50.102;19.958;2023-06-24T10:17:27;21.62;66.40
68511;SHT31;55512;50.102;19.958;2023-06-24T10:19:52;21.68;66.34
68511;SHT31;55512;50.102;19.958;2023-06-24T10:22:21;21.72;66.01
68511;SHT31;55512;50.102;19.958;2023-06-24T11:07:14;21.90;66.78
68511;SHT31;55512;50.102;19.958;2023-06-24T11:09:53;21.97;66.97
68511;SHT31;55512;50.102;19.958;2023-06-24T11:12:27;22.04;66.94
68511;SHT31;55512;50.102;19.958;2023-06-24T11:15:01;22.13;66.79
68511;SHT31;55512;50.102;19.958;2023-06-24T11:17:29;22.14;66.63
68511;SHT31;55512;50.102;19.958;2023-06-24T11:19:55;22.13;66.61
68511;SHT31;55512;50.102;19.958;2023-06-24T11:22:23;22.14;66.59
68511;SHT31;55512;50.102;19.958;2023-06-24T11:24:50;22.17;66.60
68511;SHT31;55512;50.102;19.958;2023-06-24T11:27:23;22.20;66.53
68511;SHT31;55512;50.102;19.958;2023-06-24T11:29:51;22.21;66.51
68511;SHT31;55512;50.102;19.958;2023-06-24T11:32:19;22.26;66.57
68511;SHT31;55512;50.102;19.958;2023-06-24T11:34:46;22.35;66.60
68511;SHT31;55512;50.102;19.958;2023-06-24T11:37:12;22.49;66.58
68511;SHT31;55512;50.102;19.958;2023-06-24T11:39:40;22.61;66.49
68511;SHT31;55512;50.102;19.958;2023-06-24T11:42:09;22.72;66.33
68511;SHT31;55512;50.102;19.958;2023-06-24T11:44:40;22.82;66.14
68511;SHT31;55512;50.102;19.958;2023-06-24T11:47:10;22.92;66.07
68511;SHT31;55512;50.102;19.958;2023-06-24T11:49:50;23.00;66.12
68511;SHT31;55512;50.102;19.958;2023-06-24T11:52:19;23.07;65.98
68511;SHT31;55512;50.102;19.958;2023-06-24T11:55:03;23.13;65.90
68511;SHT31;55512;50.102;19.958;2023-06-24T12:00:15;23.16;65.50
68511;SHT31;55512;50.102;19.958;2023-06-24T12:02:41;23.10;65.64
68511;SHT31;55512;50.102;19.958;2023-06-24T12:05:06;22.96;65.54
68511;SHT31;55512;50.102;19.958;2023-06-24T12:07:32;22.86;65.72
68511;SHT31;55512;50.102;19.958;2023-06-24T12:09:58;22.81;65.87
68511;SHT31;55512;50.102;19.958;2023-06-24T12:12:23;22.77;65.40
68511;SHT31;55512;50.102;19.958;2023-06-24T12:14:48;22.72;64.84
68511;SHT31;55512;50.102;19.958;2023-06-24T12:17:14;22.67;64.15
68511;SHT31;55512;50.102;19.958;2023-06-24T12:19:39;22.61;63.34
68511;SHT31;55512;50.102;19.958;2023-06-24T12:22:05;22.53;61.51
68511;SHT31;55512;50.102;19.958;2023-06-24T12:24:30;22.47;61.25
68511;SHT31;55512;50.102;19.958;2023-06-24T12:26:55;22.49;61.57
68511;SHT31;55512;50.102;19.958;2023-06-24T12:29:21;22.51;62.23
68511;SHT31;55512;50.102;19.958;2023-06-24T12:31:47;22.54;62.93
68511;SHT31;55512;50.102;19.958;2023-06-24T12:34:12;22.55;62.90
68511;SHT31;55512;50.102;19.958;2023-06-24T12:36:38;22.52;63.08
68511;SHT31;55512;50.102;19.958;2023-06-24T12:39:03;22.54;63.00
68511;SHT31;55512;50.102;19.958;2023-06-24T12:41:28;22.58;62.57
68511;SHT31;55512;50.102;19.958;2023-06-24T12:43:54;22.63;62.31
68511;SHT31;55512;50.102;19.958;2023-06-24T12:46:19;22.67;62.21
68511;SHT31;55512;50.102;19.958;2023-06-24T12:48:45;22.70;62.23
68511;SHT31;55512;50.102;19.958;2023-06-24T12:51:10;22.77;62.18
68511;SHT31;55512;50.102;19.958;2023-06-24T12:53:35;22.83;62.53
68511;SHT31;55512;50.102;19.958;2023-06-24T12:56:01;22.90;62.27
68511;SHT31;55512;50.102;19.958;2023-06-24T12:58:27;22.95;62.06
68511;SHT31;55512;50.102;19.958;2023-06-24T13:00:52;22.98;61.98
68511;SHT31;55512;50.102;19.958;2023-06-24T13:03:18;23.01;62.16
68511;SHT31;55512;50.102;19.958;2023-06-24T13:05:43;23.03;62.27
68511;SHT31;55512;50.102;19.958;2023-06-24T13:08:09;23.05;62.13
68511;SHT31;55512;50.102;19.958;2023-06-24T13:10:36;23.06;62.38
68511;SHT31;55512;50.102;19.958;2023-06-24T13:13:02;23.08;62.40
68511;SHT31;55512;50.102;19.958;2023-06-24T13:15:27;23.10;62.23
68511;SHT31;55512;50.102;19.958;2023-06-24T13:17:53;23.10;62.25
68511;SHT31;55512;50.102;19.958;2023-06-24T13:22:52;23.10;62.10
68511;SHT31;55512;50.102;19.958;2023-06-24T13:25:17;23.10;62.06
68511;SHT31;55512;50.102;19.958;2023-06-24T13:27:43;23.09;61.90
68511;SHT31;55512;50.102;19.958;2023-06-24T13:30:09;23.04;62.24
68511;SHT31;55512;50.102;19.958;2023-06-24T13:32:40;23.02;62.32
68511;SHT31;55512;50.102;19.958;2023-06-24T13:35:05;23.00;62.35
68511;SHT31;55512;50.102;19.958;2023-06-24T13:37:31;22.96;62.51
68511;SHT31;55512;50.102;19.958;2023-06-24T13:39:57;22.89;61.98
68511;SHT31;55512;50.102;19.958;2023-06-24T13:42:22;22.85;62.17
68511;SHT31;55512;50.102;19.958;2023-06-24T13:44:50;22.81;62.61
68511;SHT31;55512;50.102;19.958;2023-06-24T13:47:16;22.83;62.77
68511;SHT31;55512;50.102;19.958;2023-06-24T13:49:41;22.78;62.53
68511;SHT31;55512;50.102;19.958;2023-06-24T13:52:07;22.68;62.67
68511;SHT31;55512;50.102;19.958;2023-06-24T13:54:32;22.51;63.13
68511;SHT31;55512;50.102;19.958;2023-06-24T13:57:00;22.40;63.41
68511;SHT31;55512;50.102;19.958;2023-06-24T13:59:26;22.22;63.77
68511;SHT31;55512;50.102;19.958;2023-06-24T14:01:51;22.05;64.12
68511;SHT31;55512;50.102;19.958;2023-06-24T14:04:16;21.93;64.50
68511;SHT31;55512;50.102;19.958;2023-06-24T14:06:42;21.90;64.72
68511;SHT31;55512;50.102;19.958;2023-06-24T14:09:08;21.85;65.03
68511;SHT31;55512;50.102;19.958;2023-06-24T14:11:34;21.84;65.21
68511;SHT31;55512;50.102;19.958;2023-06-24T14:14:00;21.82;65.42
68511;SHT31;55512;50.102;19.958;2023-06-24T14:16:25;21.77;65.46
68511;SHT31;55512;50.102;19.958;2023-06-24T14:18:51;21.69;65.76
68511;SHT31;55512;50.102;19.958;2023-06-24T14:21:16;21.60;66.03
68511;SHT31;55512;50.102;19.958;2023-06-24T14:23:42;21.54;66.26
68511;SHT31;55512;50.102;19.958;2023-06-24T14:26:07;21.49;66.52
68511;SHT31;55512;50.102;19.958;2023-06-24T14:28:33;21.42;66.78
68511;SHT31;55512;50.102;19.958;2023-06-24T14:30:58;21.39;66.89
68511;SHT31;55512;50.102;19.958;2023-06-24T14:33:24;21.36;67.16
68511;SHT31;55512;50.102;19.958;2023-06-24T14:35:49;21.33;67.40
68511;SHT31;55512;50.102;19.958;2023-06-24T14:38:16;21.30;67.61
68511;SHT31;55512;50.102;19.958;2023-06-24T14:40:41;21.30;67.88
68511;SHT31;55512;50.102;19.958;2023-06-24T14:43:07;21.30;68.17
68511;SHT31;55512;50.102;19.958;2023-06-24T14:45:32;21.23;68.32
68511;SHT31;55512;50.102;19.958;2023-06-24T14:47:57;21.15;68.48
68511;SHT31;55512;50.102;19.958;2023-06-24T14:50:23;21.08;68.70
68511;SHT31;55512;50.102;19.958;2023-06-24T14:52:48;20.92;69.15
68511;SHT31;55512;50.102;19.958;2023-06-24T14:55:14;20.82;69.28
68511;SHT31;55512;50.102;19.958;2023-06-24T14:57:40;20.67;69.61
68511;SHT31;55512;50.102;19.958;2023-06-24T15:00:06;20.48;69.91
68511;SHT31;55512;50.102;19.958;2023-06-24T15:02:32;20.35;70.05
68511;SHT31;55512;50.102;19.958;2023-06-24T15:04:58;20.23;70.06
68511;SHT31;55512;50.102;19.958;2023-06-24T15:07:24;20.14;70.15
68511;SHT31;55512;50.102;19.958;2023-06-24T15:09:49;20.04;70.08
68511;SHT31;55512;50.102;19.958;2023-06-24T15:12:15;19.98;70.21
68511;SHT31;55512;50.102;19.958;2023-06-24T15:14:40;19.92;70.13
68511;SHT31;55512;50.102;19.958;2023-06-24T15:17:06;19.85;70.22
68511;SHT31;55512;50.102;19.958;2023-06-24T15:19:31;19.77;70.18
68511;SHT31;55512;50.102;19.958;2023-06-24T15:21:57;19.73;70.24
68511;SHT31;55512;50.102;19.958;2023-06-24T15:24:22;19.71;70.37
68511;SHT31;55512;50.102;19.958;2023-06-24T15:26:47;19.69;70.39
68511;SHT31;55512;50.102;19.958;2023-06-24T15:29:13;19.68;70.39
68511;SHT31;55512;50.102;19.958;2023-06-24T15:31:38;19.68;70.30
68511;SHT31;55512;50.102;19.958;2023-06-24T15:34:04;19.68;70.39
68511;SHT31;55512;50.102;19.958;2023-06-24T15:36:30;19.71;70.48
68511;SHT31;55512;50.102;19.958;2023-06-24T15:38:56;19.71;70.50
68511;SHT31;55512;50.102;19.958;2023-06-24T15:41:22;19.70;70.53
68511;SHT31;55512;50.102;19.958;2023-06-24T15:43:48;19.67;70.65
68511;SHT31;55512;50.102;19.958;2023-06-24T15:46:14;19.65;70.78
68511;SHT31;55512;50.102;19.958;2023-06-24T15:48:39;19.62;70.73
68511;SHT31;55512;50.102;19.958;2023-06-24T15:51:04;19.60;70.83
68511;SHT31;55512;50.102;19.958;2023-06-24T15:53:30;19.61;70.84
68511;SHT31;55512;50.102;19.958;2023-06-24T15:55:56;19.62;70.94
68511;SHT31;55512;50.102;19.958;2023-06-24T15:58:22;19.61;70.85
68511;SHT31;55512;50.102;19.958;2023-06-24T16:00:48;19.60;70.95
68511;SHT31;55512;50.102;19.958;2023-06-24T16:03:13;19.60;71.08
68511;SHT31;55512;50.102;19.958;2023-06-24T16:05:38;19.58;71.14
68511;SHT31;55512;50.102;19.958;2023-06-24T16:08:04;19.57;71.19
68511;SHT31;55512;50.102;19.958;2023-06-24T16:10:30;19.57;71.34
68511;SHT31;55512;50.102;19.958;2023-06-24T16:12:55;19.56;71.42
68511;SHT31;55512;50.102;19.958;2023-06-24T16:15:21;19.57;71.45
68511;SHT31;55512;50.102;19.958;2023-06-24T16:17:47;19.57;71.60